Time;durP1;ratioP1;P1;durP2;ratioP2;P2;SDS_P1;SDS_P2;PMS_P1;PMS_P2;Temp;Humidity;BMP_temperature;BMP_pressure;BME280_temperature;BME280_humidity;BME280_pressure;Samples;Min_cycle;Max_cycle;Signal;HPM_P1;HPM_P2
2024/04/12 00:01:13;;;;;;;9.02;3.05;;;;;;;-145.63;100.00;61273.97;4978621;28;20337;-64
2024/04/12 00:03:39;;;;;;;5.10;2.20;;;;;;;-145.63;100.00;61273.97;4987847;28;20034;-64
2024/04/12 00:06:20;;;;;;;6.07;2.33;;;;;;;-145.63;100.00;61273.97;4979089;28;20022;-62
2024/04/12 00:08:50;;;;;;;5.47;2.63;;;;;;;-145.63;100.00;61273.97;4982814;28;20094;-62
2024/04/12 00:11:20;;;;;;;5.68;2.35;;;;;;;-145.63;100.00;61273.97;4979667;28;20030;-62
2024/04/12 00:13:48;;;;;;;7.88;2.33;;;;;;;-145.63;100.00;61273.97;4982179;28;20038;-63
2024/04/12 00:16:17;;;;;;;4.55;1.95;;;;;;;-145.63;100.00;61273.97;4978801;28;20165;-62
2024/04/12 00:18:47;;;;;;;3.80;2.13;;;;;;;-145.63;100.00;61273.97;4981314;28;20034;-64
2024/04/12 00:21:14;;;;;;;4.05;2.15;;;;;;;-145.63;100.00;61273.97;4983287;28;20070;-63
2024/04/12 00:23:40;;;;;;;6.88;2.22;;;;;;;-145.63;100.00;61273.97;4981464;28;20633;-63
2024/04/12 00:26:07;;;;;;;5.82;2.75;;;;;;;-145.63;100.00;61273.97;4980628;28;20042;-63
2024/04/12 00:28:34;;;;;;;10.98;2.25;;;;;;;-145.63;100.00;61273.97;4980308;28;20022;-63
2024/04/12 00:31:06;;;;;;;6.00;2.65;;;;;;;-145.63;100.00;61273.97;4978377;28;20038;-63
2024/04/12 00:33:34;;;;;;;;;;;;;;;-145.63;100.00;61273.97;4985448;28;20038;-62
2024/04/12 00:36:08;;;;;;;5.20;2.17;;;;;;;-145.63;100.00;61273.97;4977328;28;19917;-63
2024/04/12 00:38:38;;;;;;;5.05;2.45;;;;;;;-145.63;100.00;61273.97;4980173;28;20098;-63
2024/04/12 00:41:12;;;;;;;6.88;2.42;;;;;;;-145.63;100.00;61273.97;4980433;28;20499;-62
2024/04/12 00:43:45;;;;;;;5.70;2.53;;;;;;;-145.63;100.00;61273.97;4979525;28;20154;-63
2024/04/12 00:46:33;;;;;;;5.60;2.20;;;;;;;-145.63;100.00;61273.97;4981596;28;20552;-64
2024/04/12 00:49:06;;;;;;;4.65;2.00;;;;;;;-145.63;100.00;61273.97;4983715;28;20023;-62
2024/04/12 00:51:33;;;;;;;4.18;2.13;;;;;;;-145.63;100.00;61273.97;4976043;28;20038;-61
2024/04/12 00:54:00;;;;;;;3.47;2.30;;;;;;;-145.63;100.00;61273.97;4980716;28;20105;-64
2024/04/12 00:56:29;;;;;;;6.65;2.58;;;;;;;-145.63;100.00;61273.97;4983905;28;20038;-62
2024/04/12 00:58:59;;;;;;;5.82;2.67;;;;;;;-145.63;100.00;61273.97;4981964;28;20058;-63
2024/04/12 01:01:26;;;;;;;7.05;2.45;;;;;;;-145.63;100.00;61273.97;4978378;28;20080;-64
2024/04/12 01:03:55;;;;;;;5.15;2.05;;;;;;;-145.63;100.00;61273.97;4978535;28;20034;-62
2024/04/12 01:06:29;;;;;;;4.78;2.30;;;;;;;-145.63;100.00;61273.97;4983023;28;20104;-62
2024/04/12 01:09:04;;;;;;;7.05;2.30;;;;;;;-145.63;100.00;61273.97;4985814;28;20065;-63
2024/04/12 01:11:32;;;;;;;3.35;2.10;;;;;;;-145.63;100.00;61273.97;4979207;28;20026;-64
2024/04/12 01:13:58;;;;;;;10.35;2.70;;;;;;;-145.63;100.00;61273.97;4978743;28;20039;-63
2024/04/12 01:16:24;;;;;;;8.63;2.63;;;;;;;-145.63;100.00;61273.97;4978987;28;20022;-64
2024/04/12 01:18:55;;;;;;;6.05;2.40;;;;;;;-145.63;100.00;61273.97;4979000;28;20025;-64
2024/04/12 01:21:23;;;;;;;6.55;2.55;;;;;;;-145.63;100.00;61273.97;4985871;28;20242;-63
2024/04/12 01:23:53;;;;;;;3.78;2.28;;;;;;;-145.63;100.00;61273.97;4978582;28;20030;-64
2024/04/12 01:26:20;;;;;;;6.50;2.80;;;;;;;-145.63;100.00;61273.97;4977945;28;20112;-64
2024/04/12 01:28:48;;;;;;;3.58;2.15;;;;;;;-145.63;100.00;61273.97;4984638;28;20406;-63
2024/04/12 01:31:17;;;;;;;4.75;2.38;;;;;;;-145.63;100.00;61273.97;4977771;28;20073;-63
2024/04/12 01:33:49;;;;;;;6.28;2.50;;;;;;;-145.63;100.00;61273.97;4980050;28;20077;-62
2024/04/12 01:36:17;;;;;;;6.90;2.67;;;;;;;-145.63;100.00;61273.97;4975065;28;20725;-64
2024/04/12 01:38:53;;;;;;;7.63;2.97;;;;;;;-145.63;100.00;61273.97;4978058;28;20065;-63
2024/04/12 01:41:31;;;;;;;6.00;2.67;;;;;;;-145.63;100.00;61273.97;4986823;28;20188;-63
2024/04/12 01:44:06;;;;;;;4.13;2.60;;;;;;;-145.63;100.00;61273.97;4985498;28;20034;-64
2024/04/12 01:46:37;;;;;;;3.97;2.50;;;;;;;-145.63;100.00;61273.97;4983171;28;20027;-64
2024/04/12 01:49:05;;;;;;;11.40;3.45;;;;;;;-145.63;100.00;61273.97;4982757;28;20030;-63
2024/04/12 01:51:35;;;;;;;6.32;2.85;;;;;;;-145.63;100.00;61273.97;4981185;28;20029;-64
2024/04/12 01:54:13;;;;;;;7.20;2.58;;;;;;;-145.63;100.00;61273.97;4980921;28;20118;-63
2024/04/12 01:56:48;;;;;;;5.55;2.35;;;;;;;-145.63;100.00;61273.97;4983728;28;20062;-63
2024/04/12 01:59:15;;;;;;;6.53;2.65;;;;;;;-145.63;100.00;61273.97;4985365;28;20069;-63
2024/04/12 02:01:45;;;;;;;6.47;2.97;;;;;;;-145.63;100.00;61273.97;4983870;28;20125;-63
2024/04/12 02:04:15;;;;;;;5.22;2.55;;;;;;;-145.63;100.00;61273.97;4982074;28;20121;-64
2024/04/12 02:06:42;;;;;;;6.00;2.90;;;;;;;-145.63;100.00;61273.97;4983684;28;20118;-64
2024/04/12 02:09:14;;;;;;;5.93;2.38;;;;;;;-145.63;100.00;61273.97;4986183;28;20432;-62
2024/04/12 02:11:47;;;;;;;4.28;2.83;;;;;;;-145.63;100.00;61273.97;4984859;28;20109;-66
2024/04/12 02:14:13;;;;;;;4.65;2.67;;;;;;;-145.63;100.00;61273.97;4982996;28;20058;-63
2024/04/12 02:16:41;;;;;;;6.78;2.80;;;;;;;-145.63;100.00;61273.97;4982318;28;20387;-62
2024/04/12 02:19:12;;;;;;;4.53;2.90;;;;;;;-145.63;100.00;61273.97;4985823;28;20042;-63
2024/04/12 02:21:40;;;;;;;4.65;2.80;;;;;;;-145.63;100.00;61273.97;4979543;28;20031;-63
2024/04/12 02:24:08;;;;;;;5.13;2.85;;;;;;;-145.63;100.00;61273.97;4982995;28;20476;-63
2024/04/12 02:26:36;;;;;;;7.13;3.40;;;;;;;-145.63;100.00;61273.97;5001158;28;20140;-62
2024/04/12 02:29:04;;;;;;;5.32;2.58;;;;;;;-145.63;100.00;61273.97;4981836;28;20041;-63
2024/04/12 02:31:31;;;;;;;5.55;2.97;;;;;;;-145.63;100.00;61273.97;4984485;28;20031;-63
2024/04/12 02:33:58;;;;;;;7.15;3.25;;;;;;;-145.63;100.00;61273.97;4978646;28;20066;-63
2024/04/12 02:36:30;;;;;;;6.03;3.28;;;;;;;-145.63;100.00;61273.97;4978816;28;20641;-62
2024/04/12 02:38:57;;;;;;;9.00;3.00;;;;;;;-145.63;100.00;61273.97;4985780;28;20035;-64
2024/04/12 02:41:23;;;;;;;6.35;3.25;;;;;;;-145.63;100.00;61273.97;4981440;28;20023;-66
2024/04/12 02:43:52;;;;;;;8.40;3.42;;;;;;;-145.63;100.00;61273.97;4983897;28;20038;-64
2024/04/12 02:46:19;;;;;;;8.25;3.35;;;;;;;-145.63;100.00;61273.97;4981654;28;20070;-63
2024/04/12 02:48:47;;;;;;;9.13;3.85;;;;;;;-145.63;100.00;61273.97;4982556;28;20524;-63
2024/04/12 02:51:17;;;;;;;7.10;3.40;;;;;;;-145.63;100.00;61273.97;4984240;28;20033;-63
2024/04/12 02:53:43;;;;;;;7.95;4.18;;;;;;;-145.63;100.00;61273.97;4981911;28;20066;-68
2024/04/12 02:56:13;;;;;;;5.95;3.55;;;;;;;-145.63;100.00;61273.97;4983016;28;20050;-64
2024/04/12 02:58:51;;;;;;;7.80;3.80;;;;;;;-145.63;100.00;61273.97;4982499;28;20456;-63
2024/04/12 03:01:22;;;;;;;7.70;4.00;;;;;;;-145.63;100.00;61273.97;4983501;28;20133;-64
2024/04/12 03:03:49;;;;;;;8.63;4.43;;;;;;;-145.63;100.00;61273.97;4982610;28;20056;-62
2024/04/12 03:06:20;;;;;;;7.15;3.65;;;;;;;-145.63;100.00;61273.97;4977293;28;20415;-64
2024/04/12 03:08:49;;;;;;;10.98;3.83;;;;;;;-145.63;100.00;61273.97;4981500;28;20018;-63
2024/04/12 03:11:25;;;;;;;8.68;4.40;;;;;;;-145.63;100.00;61273.97;4987207;28;20045;-62
2024/04/12 03:14:04;;;;;;;10.25;4.18;;;;;;;-145.63;100.00;61273.97;4980788;28;20038;-63
2024/04/12 03:16:31;;;;;;;10.25;4.03;;;;;;;-145.63;100.00;61273.97;4984273;28;20051;-64
2024/04/12 03:18:57;;;;;;;9.43;4.28;;;;;;;-145.63;100.00;61273.97;4983752;28;20034;-64
2024/04/12 03:21:30;;;;;;;9.80;4.75;;;;;;;-145.63;100.00;61273.97;4979526;28;20121;-63
2024/04/12 03:23:57;;;;;;;11.07;4.05;;;;;;;-145.63;100.00;61273.97;4982187;28;20026;-63
2024/04/12 03:26:27;;;;;;;10.05;4.68;;;;;;;-145.63;100.00;61273.97;4980939;28;20022;-63
2024/04/12 03:28:58;;;;;;;8.05;3.50;;;;;;;-145.63;100.00;61273.97;4982737;28;20035;-63
2024/04/12 03:31:27;;;;;;;10.80;3.93;;;;;;;-145.63;100.00;61273.97;4986438;28;20360;-64
2024/04/12 03:33:55;;;;;;;8.23;4.10;;;;;;;-145.63;100.00;61273.97;4981261;28;20045;-61
2024/04/12 03:36:57;;;;;;;8.10;3.38;;;;;;;-145.63;100.00;61273.97;4984556;28;20030;-64
2024/04/12 03:42:04;;;;;;;11.45;3.90;;;;;;;-145.63;100.00;61273.97;4986798;28;20463;-62
2024/04/12 03:44:33;;;;;;;7.53;3.25;;;;;;;-145.63;100.00;61273.97;4979950;28;20431;-62
2024/04/12 03:47:07;;;;;;;8.50;3.25;;;;;;;-145.63;100.00;61273.97;4988147;28;20072;-62
2024/04/12 03:49:40;;;;;;;6.40;3.45;;;;;;;-145.63;100.00;61273.97;4984921;28;20041;-63
2024/04/12 03:52:19;;;;;;;7.25;3.13;;;;;;;-145.63;100.00;61273.97;4978018;28;20111;-64
2024/04/12 03:54:45;;;;;;;9.02;3.20;;;;;;;-145.63;100.00;61273.97;4981376;28;20035;-64
2024/04/12 03:57:12;;;;;;;8.13;2.88;;;;;;;-145.63;100.00;61273.97;4984029;28;20030;-63
2024/04/12 03:59:38;;;;;;;12.98;3.38;;;;;;;-145.63;100.00;61273.97;4980348;28;20038;-62
2024/04/12 04:02:08;;;;;;;11.85;3.70;;;;;;;-145.63;100.00;61273.97;4988621;28;20097;-63
2024/04/12 04:04:44;;;;;;;9.18;2.85;;;;;;;-145.63;100.00;61273.97;4989467;28;20053;-64
2024/04/12 04:07:16;;;;;;;8.23;3.00;;;;;;;-145.63;100.00;61273.97;4984114;28;20544;-62
2024/04/12 04:09:43;;;;;;;8.82;3.03;;;;;;;-145.63;100.00;61273.97;4981213;28;20459;-65
2024/04/12 04:12:14;;;;;;;9.38;2.67;;;;;;;-145.63;100.00;61273.97;4978842;28;20029;-63
2024/04/12 04:14:48;;;;;;;5.53;2.90;;;;;;;-145.63;100.00;61273.97;4982161;28;20113;-63
2024/04/12 04:17:15;;;;;;;5.28;2.60;;;;;;;-145.63;100.00;61273.97;4985943;28;20038;-62
2024/04/12 04:19:41;;;;;;;6.97;2.33;;;;;;;-145.63;100.00;61273.97;4981323;28;20034;-64
2024/04/12 04:23:02;;;;;;;6.65;2.63;;;;;;;-145.63;100.00;61273.97;4979232;28;20115;-64
2024/04/12 04:24:57;;;;;;;12.93;2.70;;;;;;;-145.63;100.00;61273.97;4978555;28;20042;-64
2024/04/12 04:27:23;;;;;;;6.68;2.85;;;;;;;-145.63;100.00;61273.97;4976373;28;20038;-62
2024/04/12 04:29:52;;;;;;;4.28;2.53;;;;;;;-145.63;100.00;61273.97;4982038;28;20031;-63
2024/04/12 04:32:21;;;;;;;6.47;2.58;;;;;;;-145.63;100.00;61273.97;4988684;28;20030;-64
2024/04/12 04:35:04;;;;;;;6.95;2.55;;;;;;;-145.63;100.00;61273.97;4980125;28;20114;-63
2024/04/12 04:37:31;;;;;;;;;;;;;;;-145.63;100.00;61273.97;4982682;28;20030;-64
2024/04/12 04:39:58;;;;;;;9.57;3.35;;;;;;;-145.63;100.00;61273.97;4979312;28;19914;-64
2024/04/12 04:42:24;;;;;;;7.15;2.58;;;;;;;-145.63;100.00;61273.97;4976413;28;20539;-64
2024/04/12 04:44:50;;;;;;;7.40;2.85;;;;;;;-145.63;100.00;61273.97;4980961;28;20097;-65
2024/04/12 04:47:17;;;;;;;8.38;3.20;;;;;;;-145.63;100.00;61273.97;4989044;28;20066;-63
2024/04/12 04:49:42;;;;;;;6.75;2.55;;;;;;;-145.63;100.00;61273.97;4979028;28;20050;-63
2024/04/12 04:52:08;;;;;;;6.10;3.20;;;;;;;-145.63;100.00;61273.97;4982727;28;20038;-62
2024/04/12 04:54:38;;;;;;;5.10;2.90;;;;;;;-145.63;100.00;61273.97;4976675;28;20077;-63
2024/04/12 04:57:04;;;;;;;7.15;3.58;;;;;;;-145.63;100.00;61273.97;4982390;28;20022;-64
2024/04/12 04:59:32;;;;;;;5.30;3.03;;;;;;;-145.63;100.00;61273.97;4979628;28;20031;-64
2024/04/12 05:02:00;;;;;;;10.50;3.10;;;;;;;-145.63;100.00;61273.97;4986598;28;20042;-64
2024/04/12 05:04:31;;;;;;;6.10;2.83;;;;;;;-145.63;100.00;61273.97;4980329;28;20034;-62
2024/04/12 05:07:00;;;;;;;7.97;2.90;;;;;;;-145.63;100.00;61273.97;4977529;28;20038;-62
2024/04/12 05:09:32;;;;;;;7.45;3.15;;;;;;;-145.63;100.00;61273.97;4978276;28;20022;-63
2024/04/12 05:11:57;;;;;;;5.13;2.53;;;;;;;-145.63;100.00;61273.97;4976664;28;20130;-65
2024/04/12 05:17:09;;;;;;;8.90;2.85;;;;;;;-145.63;100.00;61273.97;4986538;28;20037;-64
2024/04/12 05:19:43;;;;;;;5.05;2.90;;;;;;;-145.63;100.00;61273.97;4983331;28;20037;-65
2024/04/12 05:22:10;;;;;;;5.38;2.83;;;;;;;-145.63;100.00;61273.97;4977196;28;20046;-64
2024/04/12 05:24:36;;;;;;;9.82;2.85;;;;;;;-145.63;100.00;61273.97;4981911;28;20026;-64
2024/04/12 05:27:04;;;;;;;6.95;3.17;;;;;;;-145.63;100.00;61273.97;4982711;28;20030;-64
2024/04/12 05:29:31;;;;;;;8.07;3.58;;;;;;;-145.63;100.00;61273.97;4980350;28;20137;-64
2024/04/12 05:31:57;;;;;;;7.30;3.35;;;;;;;-145.63;100.00;61273.97;4985642;28;20577;-65
2024/04/12 05:34:26;;;;;;;7.50;2.97;;;;;;;-145.63;100.00;61273.97;4981812;28;20046;-64
2024/04/12 05:37:03;;;;;;;6.00;3.05;;;;;;;-145.63;100.00;61273.97;4976278;28;20034;-64
2024/04/12 05:39:35;;;;;;;6.72;3.40;;;;;;;-145.63;100.00;61273.97;4976044;28;20027;-63
2024/04/12 05:42:05;;;;;;;7.28;4.22;;;;;;;-145.63;100.00;61273.97;4982988;28;20035;-62
2024/04/12 05:44:34;;;;;;;10.23;3.92;;;;;;;-145.63;100.00;61273.97;4979273;28;20456;-64
2024/04/12 05:47:06;;;;;;;9.63;3.92;;;;;;;-145.63;100.00;61273.97;4985259;28;20483;-64
2024/04/12 05:49:33;;;;;;;11.13;3.90;;;;;;;-145.63;100.00;61273.97;4978549;28;20038;-64
2024/04/12 05:52:03;;;;;;;8.18;3.40;;;;;;;-145.63;100.00;61273.97;4984240;28;20038;-66
2024/04/12 05:54:50;;;;;;;9.68;3.45;;;;;;;-145.63;100.00;61273.97;4975668;28;20380;-65
2024/04/12 05:57:15;;;;;;;10.82;3.58;;;;;;;-145.63;100.00;61273.97;4982171;28;20157;-63
2024/04/12 05:59:44;;;;;;;10.63;3.90;;;;;;;-145.63;100.00;61273.97;4978648;28;20126;-63
2024/04/12 06:02:10;;;;;;;12.68;3.80;;;;;;;-145.63;100.00;61273.97;4981807;28;20067;-63
2024/04/12 06:04:36;;;;;;;9.00;3.97;;;;;;;-145.63;100.00;61273.97;4983422;28;20034;-64
2024/04/12 06:07:13;;;;;;;12.10;3.53;;;;;;;-145.63;100.00;61273.97;4982939;28;20033;-64
2024/04/12 06:09:39;;;;;;;9.68;3.42;;;;;;;-145.63;100.00;61273.97;4989189;28;20132;-64
2024/04/12 06:12:06;;;;;;;10.38;4.07;;;;;;;-145.63;100.00;61273.97;4988242;28;20110;-65
2024/04/12 06:14:38;;;;;;;9.52;4.75;;;;;;;-145.63;100.00;61273.97;4972504;28;20129;-63
2024/04/12 06:17:08;;;;;;;;;;;;;;;-145.63;100.00;61273.97;4986818;28;20117;-65
2024/04/12 06:19:38;;;;;;;8.57;4.22;;;;;;;-145.63;100.00;61273.97;4976311;28;19910;-64
2024/04/12 06:22:13;;;;;;;8.40;3.95;;;;;;;-145.63;100.00;61273.97;4982843;28;20069;-66
2024/04/12 06:24:48;;;;;;;8.70;3.35;;;;;;;-145.63;100.00;61273.97;4987531;28;20114;-65
2024/04/12 06:27:29;;;;;;;11.20;3.70;;;;;;;-145.63;100.00;61273.97;4979902;28;20030;-63
2024/04/12 06:30:00;;;;;;;6.72;3.30;;;;;;;-145.63;100.00;61273.97;4993068;28;20042;-63
2024/04/12 06:32:29;;;;;;;10.15;3.60;;;;;;;-145.63;100.00;61273.97;4976084;28;20495;-65
2024/04/12 06:34:55;;;;;;;5.60;3.40;;;;;;;-145.63;100.00;61273.97;4985387;28;20144;-63
2024/04/12 06:37:24;;;;;;;10.63;3.83;;;;;;;-145.63;100.00;61273.97;4978672;28;20039;-65
2024/04/12 06:39:55;;;;;;;12.05;3.83;;;;;;;-145.63;100.00;61273.97;4993652;28;20034;-66
2024/04/12 06:42:21;;;;;;;11.52;4.38;;;;;;;-145.63;100.00;61273.97;5009134;28;20057;-66
2024/04/12 06:44:50;;;;;;;10.07;4.80;;;;;;;-145.63;100.00;61273.97;4994809;28;20035;-65
2024/04/12 06:47:18;;;;;;;11.07;4.07;;;;;;;-145.63;100.00;61273.97;4983280;28;20040;-65
2024/04/12 06:49:44;;;;;;;10.95;3.58;;;;;;;-145.63;100.00;61273.97;4994376;28;20026;-66
2024/04/12 06:52:22;;;;;;;8.52;3.60;;;;;;;-145.63;100.00;61273.97;4983107;28;20034;-63
2024/04/12 06:54:48;;;;;;;10.32;3.75;;;;;;;-145.63;100.00;61273.97;4983666;28;20026;-65
2024/04/12 06:57:24;;;;;;;9.93;3.30;;;;;;;-145.63;100.00;61273.97;4994013;28;20435;-64
2024/04/12 06:59:54;;;;;;;9.82;3.80;;;;;;;-145.63;100.00;61273.97;4993674;28;20038;-65
2024/04/12 07:02:29;;;;;;;12.57;3.30;;;;;;;-145.63;100.00;61273.97;4985790;28;20034;-66
2024/04/12 07:04:56;;;;;;;9.35;3.58;;;;;;;-145.63;100.00;61273.97;4994532;28;20534;-67
2024/04/12 07:07:23;;;;;;;7.55;3.22;;;;;;;-145.63;100.00;61273.97;4981535;28;20038;-65
2024/04/12 07:09:59;;;;;;;8.20;2.83;;;;;;;-145.63;100.00;61273.97;4983628;28;20038;-64
2024/04/12 07:12:31;;;;;;;12.85;3.17;;;;;;;-145.63;100.00;61273.97;4994219;28;20412;-64
2024/04/12 07:14:56;;;;;;;10.55;3.03;;;;;;;-145.63;100.00;61273.97;4992818;28;20039;-66
2024/04/12 07:17:23;;;;;;;10.00;3.58;;;;;;;-145.63;100.00;61273.97;4974010;28;20074;-64
2024/04/12 07:19:51;;;;;;;9.40;3.13;;;;;;;-145.63;100.00;61273.97;4991519;28;20074;-63
2024/04/12 07:22:21;;;;;;;8.27;2.97;;;;;;;-145.63;100.00;61273.97;4982449;28;20049;-63
2024/04/12 07:24:50;;;;;;;6.45;3.15;;;;;;;-145.63;100.00;61273.97;4982597;28;20121;-64
2024/04/12 07:27:27;;;;;;;6.43;2.63;;;;;;;-145.63;100.00;61273.97;4989903;28;20035;-64
2024/04/12 07:29:53;;;;;;;8.43;2.97;;;;;;;-145.63;100.00;61273.97;4975596;28;20027;-64
2024/04/12 07:32:22;;;;;;;8.90;3.15;;;;;;;-145.63;100.00;61273.97;4993337;28;20054;-65
2024/04/12 07:34:49;;;;;;;9.05;2.72;;;;;;;-145.63;100.00;61273.97;4992776;28;20032;-65
2024/04/12 07:37:27;;;;;;;10.00;2.85;;;;;;;-145.63;100.00;61273.97;4976420;28;20041;-65
2024/04/12 07:40:15;;;;;;;10.52;3.30;;;;;;;-145.63;100.00;61273.97;4983343;28;20034;-64
2024/04/12 07:42:47;;;;;;;8.93;3.10;;;;;;;-145.63;100.00;61273.97;4995897;28;20030;-65
2024/04/12 07:45:17;;;;;;;11.57;2.80;;;;;;;-145.63;100.00;61273.97;4989758;28;20031;-66
2024/04/12 07:47:52;;;;;;;4.88;2.67;;;;;;;-145.63;100.00;61273.97;4992531;28;20117;-66
2024/04/12 07:50:30;;;;;;;7.65;2.80;;;;;;;-145.63;100.00;61273.97;4993789;28;20019;-65
2024/04/12 07:55:58;;;;;;;6.22;2.85;;;;;;;-145.63;100.00;61273.97;4987684;28;20383;-66
2024/04/12 07:58:34;;;;;;;9.68;2.53;;;;;;;-145.63;100.00;61273.97;4980321;28;20443;-64
2024/04/12 08:01:15;;;;;;;7.65;2.80;;;;;;;-145.63;100.00;61273.97;4983484;28;20129;-64
2024/04/12 08:03:50;;;;;;;8.53;2.20;;;;;;;-145.63;100.00;61273.97;4978997;28;20128;-65
2024/04/12 08:06:19;;;;;;;13.27;2.55;;;;;;;-145.63;100.00;61273.97;4981024;28;20117;-64
2024/04/12 08:09:03;;;;;;;7.63;2.67;;;;;;;-145.63;100.00;61273.97;4977376;28;20035;-64
2024/04/12 08:11:41;;;;;;;6.38;2.35;;;;;;;-145.63;100.00;61273.97;4974525;28;20476;-64
2024/04/12 08:14:08;;;;;;;19.08;2.38;;;;;;;-145.63;100.00;61273.97;4992066;28;20038;-63
2024/04/12 08:16:38;;;;;;;6.90;2.25;;;;;;;-145.63;100.00;61273.97;4992727;28;20054;-64
2024/04/12 08:19:13;;;;;;;5.00;2.10;;;;;;;-145.63;100.00;61273.97;4992879;28;20088;-65
2024/04/12 08:21:54;;;;;;;5.45;2.10;;;;;;;-145.63;100.00;61273.97;4986034;28;20035;-64
2024/04/12 08:24:23;;;;;;;3.75;1.98;;;;;;;-145.63;100.00;61273.97;4977335;28;20129;-66
2024/04/12 08:26:51;;;;;;;5.00;2.25;;;;;;;-145.63;100.00;61273.97;4992940;28;20046;-64
2024/04/12 08:29:28;;;;;;;6.35;2.00;;;;;;;-145.63;100.00;61273.97;4973327;28;20121;-64
2024/04/12 08:34:44;;;;;;;5.05;1.85;;;;;;;-145.63;100.00;61273.97;4992842;28;20070;-65
2024/04/12 08:37:13;;;;;;;4.72;2.08;;;;;;;-145.63;100.00;61273.97;4981907;28;20475;-64
2024/04/12 08:39:46;;;;;;;5.68;2.00;;;;;;;-145.63;100.00;61273.97;4979279;28;20403;-65
2024/04/12 08:42:16;;;;;;;3.42;1.70;;;;;;;-145.63;100.00;61273.97;4995492;28;20038;-66
2024/04/12 08:44:47;;;;;;;7.30;2.15;;;;;;;-145.63;100.00;61273.97;5012247;28;20038;-65
2024/04/12 08:47:30;;;;;;;3.97;1.73;;;;;;;-145.63;100.00;61273.97;4991730;28;20038;-68
2024/04/12 08:50:13;;;;;;;3.92;1.65;;;;;;;-145.63;100.00;61273.97;4975931;28;20041;-66
2024/04/12 08:52:43;;;;;;;6.18;1.80;;;;;;;-145.63;100.00;61273.97;4985144;28;20191;-63
2024/04/12 08:55:13;;;;;;;3.53;2.28;;;;;;;-145.63;100.00;61273.97;4981395;28;20083;-65
2024/04/12 08:57:44;;;;;;;2.85;1.35;;;;;;;-145.63;100.00;61273.97;4979259;28;20050;-64
2024/04/12 09:00:18;;;;;;;4.10;1.88;;;;;;;-145.63;100.00;61273.97;4989684;28;20038;-64
2024/04/12 09:02:50;;;;;;;8.65;2.03;;;;;;;-145.63;100.00;61273.97;4991745;28;20046;-66
2024/04/12 09:05:22;;;;;;;7.60;1.90;;;;;;;-145.63;100.00;61273.97;4992172;28;20046;-64
2024/04/12 09:07:50;;;;;;;7.97;1.60;;;;;;;-145.63;100.00;61273.97;4976990;28;20093;-64
2024/04/12 09:10:19;;;;;;;8.95;2.00;;;;;;;-145.63;100.00;61273.97;4972214;28;20041;-65
2024/04/12 09:12:46;;;;;;;6.03;2.00;;;;;;;-145.63;100.00;61273.97;4980201;28;20100;-66
2024/04/12 09:15:23;;;;;;;5.68;1.98;;;;;;;-145.63;100.00;61273.97;4989357;28;20050;-65
2024/04/12 09:18:00;;;;;;;7.72;2.10;;;;;;;-145.63;100.00;61273.97;4971380;28;20110;-66
2024/04/12 09:20:35;;;;;;;4.28;1.67;;;;;;;-145.63;100.00;61273.97;4972514;28;20093;-68
2024/04/12 09:23:19;;;;;;;10.15;1.95;;;;;;;-145.63;100.00;61273.97;4991488;28;20468;-67
2024/04/12 09:25:57;;;;;;;12.57;2.63;;;;;;;-145.63;100.00;61273.97;4976210;28;20476;-67
2024/04/12 09:28:30;;;;;;;4.43;1.80;;;;;;;-145.63;100.00;61273.97;4973077;28;20034;-66
2024/04/12 09:33:51;;;;;;;11.18;2.30;;;;;;;-145.63;100.00;61273.97;4985975;28;20039;-64
2024/04/12 09:36:39;;;;;;;8.77;2.08;;;;;;;-145.63;100.00;61273.97;4980343;28;20036;-66
2024/04/12 09:39:15;;;;;;;5.90;2.22;;;;;;;-145.63;100.00;61273.97;4988677;28;20084;-65
2024/04/12 09:41:53;;;;;;;3.47;1.98;;;;;;;-145.63;100.00;61273.97;4987639;28;20498;-68
2024/04/12 09:44:38;;;;;;;6.80;1.83;;;;;;;-145.63;100.00;61273.97;4991914;28;20037;-64
2024/04/12 10:37:28;;;;;;;5.18;2.20;;;;;;;-145.63;100.00;61273.97;4975836;28;20113;-64
2024/04/12 10:39:56;;;;;;;4.28;2.08;;;;;;;-145.63;100.00;61273.97;4983071;28;20026;-64
2024/04/12 10:42:30;;;;;;;4.90;1.92;;;;;;;-145.63;100.00;61273.97;4996749;28;20056;-64
2024/04/12 10:44:59;;;;;;;3.50;1.70;;;;;;;-145.63;100.00;61273.97;4991886;28;20045;-65
2024/04/12 10:47:28;;;;;;;4.53;1.70;;;;;;;-145.63;100.00;61273.97;4994365;28;20034;-67
2024/04/12 10:49:57;;;;;;;5.00;1.90;;;;;;;-145.63;100.00;61273.97;4994709;28;20026;-65
2024/04/12 10:52:30;;;;;;;7.45;1.77;;;;;;;-145.63;100.00;61273.97;4982888;28;20031;-66
2024/04/12 10:54:56;;;;;;;7.68;1.60;;;;;;;-145.63;100.00;61273.97;4974866;28;20062;-65
2024/04/12 10:57:23;;;;;;;8.80;2.13;;;;;;;-145.63;100.00;61273.97;4974941;28;20462;-65
2024/04/12 10:59:51;;;;;;;7.18;1.88;;;;;;;-145.63;100.00;61273.97;4974915;28;20031;-66
2024/04/12 11:02:18;;;;;;;4.13;1.50;;;;;;;-145.63;100.00;61273.97;4988732;28;20058;-65
2024/04/12 11:07:30;;;;;;;6.88;1.88;;;;;;;-145.63;100.00;61273.97;4975137;28;20038;-64
2024/04/12 11:09:59;;;;;;;5.97;2.67;;;;;;;-145.63;100.00;61273.97;4977291;28;20031;-65
2024/04/12 11:12:29;;;;;;;7.20;1.92;;;;;;;-145.63;100.00;61273.97;4990936;28;20089;-64
2024/04/12 11:31:06;;;;;;;6.10;2.03;;;;;;;-145.63;100.00;61273.97;4993587;28;20030;-64
2024/04/12 11:31:48;;;;;;;5.00;2.00;;;;;;;-145.63;100.00;61273.97;4981135;28;20118;-64
2024/04/12 11:34:20;;;;;;;4.43;1.75;;;;;;;-145.63;100.00;61273.97;4989865;28;20117;-64
2024/04/12 11:36:46;;;;;;;4.82;2.20;;;;;;;-145.63;100.00;61273.97;4982980;28;20479;-65
2024/04/12 11:39:25;;;;;;;5.00;2.40;;;;;;;-145.63;100.00;61273.97;4974053;28;20039;-64
2024/04/12 11:42:00;;;;;;;4.40;1.80;;;;;;;-145.63;100.00;61273.97;4974053;28;20038;-64
2024/04/12 11:44:26;;;;;;;4.15;1.38;;;;;;;-145.63;100.00;61273.97;4992569;28;20030;-64
2024/04/12 11:47:01;;;;;;;7.35;2.17;;;;;;;-145.63;100.00;61273.97;4983894;28;20049;-67
2024/04/12 11:49:28;;;;;;;2.75;1.55;;;;;;;-145.63;100.00;61273.97;4992892;28;20050;-63
2024/04/12 11:52:03;;;;;;;3.85;1.77;;;;;;;-145.63;100.00;61273.97;4993066;28;20057;-64
2024/04/12 11:54:30;;;;;;;4.82;2.00;;;;;;;-145.63;100.00;61273.97;4987463;28;20030;-62
2024/04/12 11:57:00;;;;;;;4.32;1.70;;;;;;;-145.63;100.00;61273.97;4982032;28;20054;-66
2024/04/12 11:59:29;;;;;;;4.85;1.92;;;;;;;-145.63;100.00;61273.97;4993279;28;20038;-66
2024/04/12 12:01:59;;;;;;;4.85;1.83;;;;;;;-145.63;100.00;61273.97;4981011;28;20461;-63
2024/04/12 12:04:28;;;;;;;4.18;2.00;;;;;;;-145.63;100.00;61273.97;4992901;28;20026;-63
2024/04/12 12:06:55;;;;;;;9.00;2.33;;;;;;;-145.63;100.00;61273.97;4993213;28;20062;-65
2024/04/12 12:09:21;;;;;;;4.72;2.10;;;;;;;-145.63;100.00;61273.97;4991040;28;20030;-63
2024/04/12 12:11:50;;;;;;;3.80;1.90;;;;;;;-145.63;100.00;61273.97;4973592;28;20027;-63
2024/04/12 12:14:16;;;;;;;11.10;2.20;;;;;;;-145.63;100.00;61273.97;4990833;28;20054;-64
2024/04/12 12:16:42;;;;;;;5.00;1.70;;;;;;;-145.63;100.00;61273.97;4980027;28;20041;-64
2024/04/12 12:19:08;;;;;;;2.92;1.52;;;;;;;-145.63;100.00;61273.97;4981631;28;20030;-63
2024/04/12 12:21:34;;;;;;;6.53;2.00;;;;;;;-145.63;100.00;61273.97;4992119;28;20031;-64
2024/04/12 12:24:00;;;;;;;5.32;1.63;;;;;;;-145.63;100.00;61273.97;4991933;28;20734;-65
2024/04/12 12:26:26;;;;;;;9.40;1.90;;;;;;;-145.63;100.00;61273.97;4978124;28;20437;-63
2024/04/12 12:28:51;;;;;;;8.52;2.20;;;;;;;-145.63;100.00;61273.97;4977214;28;20038;-65
2024/04/12 12:31:18;;;;;;;3.25;1.67;;;;;;;-145.63;100.00;61273.97;4982544;28;20034;-65
2024/04/12 12:33:45;;;;;;;6.97;1.98;;;;;;;-145.63;100.00;61273.97;4992411;28;20037;-65
2024/04/12 12:36:16;;;;;;;5.55;1.98;;;;;;;-145.63;100.00;61273.97;4992200;28;20041;-64
2024/04/12 12:38:43;;;;;;;8.02;2.30;;;;;;;-145.63;100.00;61273.97;4992866;28;20109;-66
2024/04/12 12:41:10;;;;;;;6.07;1.65;;;;;;;-145.63;100.00;61273.97;4975681;28;20042;-65
2024/04/12 12:43:40;;;;;;;6.80;1.80;;;;;;;-145.63;100.00;61273.97;4996666;28;20037;-65
2024/04/12 12:46:10;;;;;;;13.13;2.20;;;;;;;-145.63;100.00;61273.97;5004059;28;20034;-65